Time;durP1;ratioP1;P1;durP2;ratioP2;P2;SDS_P1;SDS_P2;PMS_P1;PMS_P2;Temp;Humidity;BMP_temperature;BMP_pressure;BME280_temperature;BME280_humidity;BME280_pressure;Samples;Min_cycle;Max_cycle;Signal;HPM_P1;HPM_P2
2021/06/05 00:01:31;;;;;;;3.93;1.40;;;13.10;99.90;;;;;;5032187;28;20181;-69
2021/06/05 00:03:59;;;;;;;1.37;1.27;;;13.10;99.90;;;;;;5031675;28;20172;-70
2021/06/05 00:06:28;;;;;;;1.93;1.50;;;13.20;99.70;;;;;;5031792;28;20201;-69
2021/06/05 00:08:56;;;;;;;6.83;1.57;;;13.30;99.90;;;;;;5032711;28;20570;-68
2021/06/05 00:11:28;;;;;;;5.47;1.67;;;13.50;99.90;;;;;;5031517;28;20180;-68
2021/06/05 00:13:58;;;;;;;1.60;1.30;;;13.60;99.60;;;;;;5023205;28;20193;-70
2021/06/05 00:16:32;;;;;;;4.77;1.60;;;13.60;99.10;;;;;;5028320;28;20258;-68
2021/06/05 00:18:59;;;;;;;4.13;1.57;;;13.60;99.00;;;;;;5031908;28;20184;-69
2021/06/05 00:21:27;;;;;;;3.83;1.50;;;13.70;98.90;;;;;;5013647;28;20270;-69
2021/06/05 00:23:56;;;;;;;5.40;1.53;;;13.80;98.40;;;;;;5031377;28;20655;-68
2021/06/05 00:26:24;;;;;;;4.03;1.60;;;13.90;98.00;;;;;;5031964;28;20227;-68
2021/06/05 00:28:52;;;;;;;3.60;1.50;;;13.90;97.90;;;;;;5032106;28;20181;-67
2021/06/05 00:31:20;;;;;;;3.93;1.40;;;14.00;97.90;;;;;;5031265;28;20192;-69
2021/06/05 00:33:47;;;;;;;2.17;1.33;;;14.00;97.40;;;;;;5030516;28;20177;-68
2021/06/05 00:36:16;;;;;;;2.00;1.30;;;14.10;97.60;;;;;;5032423;28;20272;-69
2021/06/05 00:38:43;;;;;;;4.10;1.60;;;14.20;97.00;;;;;;5031629;28;20227;-69
2021/06/05 00:41:16;;;;;;;3.17;1.50;;;14.30;96.80;;;;;;5030987;28;20184;-67
2021/06/05 00:43:50;;;;;;;3.77;1.50;;;14.20;96.20;;;;;;5030412;28;20188;-69
2021/06/05 00:46:20;;;;;;;5.57;1.87;;;14.30;96.20;;;;;;5021191;28;20232;-67
2021/06/05 00:48:47;;;;;;;3.07;1.67;;;14.30;96.50;;;;;;5032031;28;20188;-68
2021/06/05 00:51:17;;;;;;;5.87;2.00;;;14.40;96.00;;;;;;5031947;28;20251;-68
2021/06/05 00:53:45;;;;;;;3.23;1.67;;;14.60;95.70;;;;;;5032207;28;20181;-70
2021/06/05 00:56:14;;;;;;;3.23;1.50;;;14.70;95.80;;;;;;5029782;28;20212;-68
2021/06/05 00:58:42;;;;;;;4.93;1.60;;;14.70;95.50;;;;;;5032059;28;20192;-67
2021/06/05 01:01:20;;;;;;;3.83;1.53;;;14.80;95.70;;;;;;5021335;28;20227;-66
2021/06/05 01:03:47;;;;;;;4.67;1.60;;;14.90;95.80;;;;;;5031876;28;20183;-70
2021/06/05 01:06:36;;;;;;;3.97;1.70;;;15.00;95.70;;;;;;5032220;28;20222;-73
2021/06/05 01:09:07;;;;;;;3.07;1.27;;;15.10;95.00;;;;;;5013088;28;20624;-72
2021/06/05 01:11:52;;;;;;;7.27;1.87;;;15.20;95.20;;;;;;5014679;28;20176;-70
2021/06/05 01:14:54;;;;;;;9.47;1.80;;;15.30;95.20;;;;;;5012589;28;20632;-73
2021/06/05 01:17:30;;;;;;;3.50;1.60;;;15.40;94.80;;;;;;5021350;28;20732;-72
2021/06/05 01:20:10;;;;;;;2.33;1.40;;;15.40;94.50;;;;;;5032135;28;20188;-67
2021/06/05 01:23:18;;;;;;;8.27;1.77;;;15.60;94.80;;;;;;5032012;28;20269;-68
2021/06/05 01:26:06;;;;;;;5.47;1.63;;;15.60;94.60;;;;;;5031091;28;20179;-71
2021/06/05 01:28:40;;;;;;;4.23;1.60;;;15.80;94.70;;;;;;5031802;28;20276;-66
2021/06/05 01:31:14;;;;;;;3.57;1.50;;;15.80;94.70;;;;;;5032006;28;20171;-67
2021/06/05 01:33:43;;;;;;;4.77;1.50;;;16.00;94.40;;;;;;5032254;28;20399;-69
2021/06/05 01:36:13;;;;;;;6.53;1.60;;;16.10;93.90;;;;;;5047291;28;20675;-71
2021/06/05 01:38:48;;;;;;;5.93;1.70;;;15.80;93.70;;;;;;5030232;28;20642;-71
2021/06/05 01:41:17;;;;;;;3.13;1.30;;;15.70;93.90;;;;;;5031554;28;20186;-71
2021/06/05 01:43:47;;;;;;;7.80;1.73;;;15.90;93.60;;;;;;5031567;28;20176;-69
2021/06/05 01:46:20;;;;;;;4.13;1.50;;;16.00;93.60;;;;;;5032068;28;20647;-68
2021/06/05 01:48:47;;;;;;;3.57;1.77;;;16.10;93.60;;;;;;5027611;28;20203;-67
2021/06/05 01:51:18;;;;;;;8.20;2.00;;;16.50;92.70;;;;;;5016300;28;20183;-71
2021/06/05 01:53:56;;;;;;;7.90;1.77;;;16.40;92.30;;;;;;5030864;28;20276;-70
2021/06/05 01:56:37;;;;;;;5.73;1.67;;;16.40;93.20;;;;;;5030886;28;20335;-68
2021/06/05 01:59:07;;;;;;;5.87;1.43;;;16.40;92.00;;;;;;5016769;28;20188;-69
2021/06/05 02:01:34;;;;;;;2.70;1.20;;;16.60;92.40;;;;;;5031123;28;20178;-69
2021/06/05 02:04:02;;;;;;;7.33;1.57;;;16.60;91.20;;;;;;5030545;28;20614;-70
2021/06/05 02:06:29;;;;;;;2.53;1.37;;;16.70;91.30;;;;;;5031068;28;20185;-68
2021/06/05 02:09:01;;;;;;;3.23;1.27;;;16.90;90.50;;;;;;5031026;28;20543;-67
2021/06/05 02:11:29;;;;;;;3.00;1.20;;;17.00;90.00;;;;;;5031978;28;20172;-68
2021/06/05 02:14:08;;;;;;;5.30;1.50;;;16.90;89.40;;;;;;5031314;28;20192;-69
2021/06/05 02:16:43;;;;;;;7.50;1.50;;;17.10;89.90;;;;;;5027388;28;20700;-71
2021/06/05 02:19:31;;;;;;;4.93;1.27;;;17.20;87.00;;;;;;5030158;28;20815;-71
2021/06/05 02:22:05;;;;;;;4.27;1.50;;;17.40;86.60;;;;;;5028662;28;20547;-70
2021/06/05 02:24:46;;;;;;;4.40;1.10;;;17.40;85.60;;;;;;5019526;28;20621;-68
2021/06/05 02:27:21;;;;;;;3.03;1.33;;;17.50;83.50;;;;;;5034932;28;20169;-69
2021/06/05 02:29:51;;;;;;;5.03;1.27;;;17.60;84.50;;;;;;5032763;28;21301;-69
2021/06/05 02:32:23;;;;;;;5.87;1.00;;;17.40;85.70;;;;;;5021613;28;20203;-69
2021/06/05 02:34:54;;;;;;;3.63;1.20;;;17.40;83.60;;;;;;5033998;28;20181;-70
2021/06/05 02:37:27;;;;;;;1.17;1.03;;;17.40;85.20;;;;;;5034836;28;20568;-67
2021/06/05 02:39:57;;;;;;;3.47;1.10;;;17.70;83.10;;;;;;5033452;28;20521;-70
2021/06/05 02:42:25;;;;;;;2.80;1.40;;;17.70;80.20;;;;;;5035009;28;20661;-68
2021/06/05 02:44:56;;;;;;;6.90;1.40;;;17.80;79.60;;;;;;5033642;28;20243;-70
2021/06/05 02:47:26;;;;;;;3.03;0.90;;;17.90;79.70;;;;;;5030695;28;20579;-68
2021/06/05 02:49:54;;;;;;;2.50;0.80;;;17.60;78.40;;;;;;5031924;28;20256;-69
2021/06/05 02:52:34;;;;;;;2.70;1.07;;;17.60;77.50;;;;;;5034123;28;20180;-69
2021/06/05 02:55:10;;;;;;;3.10;0.70;;;17.80;77.10;;;;;;5025401;28;20194;-69
2021/06/05 02:57:39;;;;;;;1.17;0.70;;;17.80;76.60;;;;;;5033388;28;20216;-68
2021/06/05 03:00:13;;;;;;;2.27;0.90;;;18.00;76.40;;;;;;5033228;28;20181;-69
2021/06/05 03:02:41;;;;;;;2.50;0.80;;;18.00;74.00;;;;;;5034393;28;20194;-72
2021/06/05 03:05:09;;;;;;;3.03;0.80;;;18.10;74.40;;;;;;5034770;28;20546;-69
2021/06/05 03:07:36;;;;;;;2.13;1.20;;;17.90;74.80;;;;;;5034554;28;20183;-68
2021/06/05 03:10:06;;;;;;;0.80;0.70;;;18.00;75.90;;;;;;5034352;28;20184;-68
2021/06/05 03:12:33;;;;;;;2.50;1.20;;;18.10;74.60;;;;;;5034599;28;20203;-66
2021/06/05 03:15:02;;;;;;;3.70;1.03;;;18.00;73.60;;;;;;5034098;28;20626;-71
2021/06/05 03:17:29;;;;;;;4.00;1.23;;;18.20;73.90;;;;;;5034285;28;20266;-68
2021/06/05 03:19:57;;;;;;;6.87;1.00;;;18.20;73.80;;;;;;5033308;28;20585;-70
2021/06/05 03:22:24;;;;;;;2.70;0.87;;;18.40;73.00;;;;;;5034132;28;20185;-68
2021/06/05 03:24:52;;;;;;;3.20;0.80;;;18.60;72.10;;;;;;5034421;28;20192;-68
2021/06/05 03:27:22;;;;;;;5.27;1.27;;;18.80;72.00;;;;;;5034260;28;20541;-67
2021/06/05 03:29:49;;;;;;;3.53;1.03;;;19.00;71.80;;;;;;5034235;28;20536;-68
2021/06/05 03:32:17;;;;;;;2.20;1.13;;;19.00;70.80;;;;;;5033908;28;20214;-68
2021/06/05 03:34:45;;;;;;;4.50;1.20;;;19.20;71.70;;;;;;5019145;28;20643;-69
2021/06/05 03:37:12;;;;;;;4.97;1.20;;;19.30;71.10;;;;;;5034009;28;20223;-68
2021/06/05 03:39:39;;;;;;;3.77;0.80;;;19.20;72.30;;;;;;5033570;28;20291;-70
2021/06/05 03:42:08;;;;;;;3.47;1.00;;;19.00;71.40;;;;;;5033999;28;20180;-69
2021/06/05 03:44:38;;;;;;;4.73;1.20;;;18.80;71.40;;;;;;5033608;28;20263;-69
2021/06/05 03:47:05;;;;;;;5.33;1.40;;;18.60;71.30;;;;;;5033809;28;20177;-70
2021/06/05 03:49:33;;;;;;;2.23;1.00;;;18.50;72.00;;;;;;5033499;28;20184;-68
2021/06/05 03:52:01;;;;;;;4.27;1.10;;;18.70;71.10;;;;;;5033950;28;20176;-73
2021/06/05 03:54:28;;;;;;;1.27;0.90;;;19.00;71.00;;;;;;5032703;28;20180;-72
2021/06/05 03:56:55;;;;;;;4.53;1.20;;;19.20;71.70;;;;;;5033633;28;20208;-73
2021/06/05 03:59:23;;;;;;;1.57;0.80;;;19.60;70.50;;;;;;5033546;28;20172;-70
2021/06/05 04:01:50;;;;;;;4.53;0.93;;;19.40;69.80;;;;;;5033372;28;20575;-74
2021/06/05 04:04:19;;;;;;;4.27;1.40;;;19.90;69.00;;;;;;5033629;28;20517;-74
2021/06/05 04:06:47;;;;;;;4.03;1.40;;;20.60;67.40;;;;;;5033457;28;20184;-75
2021/06/05 04:09:16;;;;;;;2.43;1.33;;;20.70;66.70;;;;;;5033329;28;20243;-73
2021/06/05 04:11:43;;;;;;;2.60;1.20;;;20.00;65.70;;;;;;5031144;28;20681;-75
2021/06/05 04:14:10;;;;;;;2.20;1.30;;;19.80;66.90;;;;;;5033381;28;20177;-74
2021/06/05 04:16:38;;;;;;;2.70;1.20;;;20.00;67.20;;;;;;5030861;28;20266;-72
2021/06/05 04:19:05;;;;;;;1.57;1.00;;;20.20;66.80;;;;;;5032037;28;20173;-71
2021/06/05 04:21:33;;;;;;;1.57;1.10;;;20.20;65.70;;;;;;5032891;28;20541;-68
2021/06/05 04:24:00;;;;;;;3.70;1.20;;;20.40;65.70;;;;;;5031398;28;20636;-71
2021/06/05 04:26:27;;;;;;;6.20;1.60;;;20.10;66.20;;;;;;5032320;28;20188;-71
2021/06/05 04:28:55;;;;;;;4.80;1.67;;;20.10;65.40;;;;;;5032685;28;20188;-69
2021/06/05 04:31:23;;;;;;;2.27;1.30;;;19.90;65.10;;;;;;5032680;28;20552;-71
2021/06/05 04:33:50;;;;;;;3.27;1.20;;;20.00;65.30;;;;;;5032557;28;20241;-71
2021/06/05 04:36:18;;;;;;;2.80;1.30;;;19.90;66.20;;;;;;5033029;28;20600;-67
2021/06/05 04:38:47;;;;;;;2.53;1.40;;;20.30;65.50;;;;;;5032503;28;20283;-72
2021/06/05 04:41:16;;;;;;;8.37;1.63;;;20.50;64.70;;;;;;5032312;28;20176;-71
2021/06/05 04:43:44;;;;;;;2.57;1.20;;;20.50;64.00;;;;;;5032670;28;20271;-69
2021/06/05 04:46:13;;;;;;;2.57;1.20;;;20.20;65.00;;;;;;5030860;28;20222;-71
2021/06/05 04:48:45;;;;;;;2.90;1.30;;;19.80;66.40;;;;;;5030485;28;20335;-70
2021/06/05 04:51:15;;;;;;;2.60;1.13;;;19.90;66.60;;;;;;5024743;28;20687;-71
2021/06/05 04:53:43;;;;;;;3.87;1.40;;;20.00;65.60;;;;;;5032928;28;20177;-70
2021/06/05 04:56:11;;;;;;;2.60;1.40;;;20.10;65.90;;;;;;5032673;28;20204;-72
2021/06/05 04:58:38;;;;;;;3.27;1.40;;;20.00;66.60;;;;;;5032657;28;20185;-70
2021/06/05 05:01:06;;;;;;;4.93;1.23;;;20.60;65.90;;;;;;5032733;28;20207;-69
2021/06/05 05:03:33;;;;;;;2.43;1.23;;;20.40;64.90;;;;;;5032421;28;20241;-70
2021/06/05 05:06:03;;;;;;;3.97;1.00;;;20.60;66.10;;;;;;5032711;28;20187;-70
2021/06/05 05:08:32;;;;;;;2.80;1.57;;;20.60;65.80;;;;;;5032616;28;20639;-74
2021/06/05 05:11:01;;;;;;;4.53;1.17;;;20.40;65.40;;;;;;5032465;28;20215;-75
2021/06/05 05:13:31;;;;;;;5.20;1.47;;;20.20;65.80;;;;;;5032729;28;20219;-74
2021/06/05 05:15:59;;;;;;;5.03;1.17;;;20.50;64.90;;;;;;5030896;28;20624;-75
2021/06/05 05:18:27;;;;;;;4.07;1.20;;;20.50;65.20;;;;;;5031563;28;20196;-70
2021/06/05 05:20:56;;;;;;;3.60;1.20;;;20.30;65.70;;;;;;5032422;28;20223;-74
2021/06/05 05:23:29;;;;;;;3.33;1.23;;;20.30;65.90;;;;;;5032604;28;20563;-74
2021/06/05 05:26:01;;;;;;;2.03;1.00;;;20.70;65.40;;;;;;5012958;28;20235;-73
2021/06/05 05:28:29;;;;;;;3.50;1.37;;;20.50;66.60;;;;;;5013084;28;20181;-71
2021/06/05 05:30:59;;;;;;;2.73;1.23;;;20.70;66.90;;;;;;5032066;28;20180;-73
2021/06/05 05:33:27;;;;;;;1.47;1.20;;;21.30;65.20;;;;;;5031521;28;20528;-73
2021/06/05 05:35:57;;;;;;;4.40;1.20;;;21.30;64.60;;;;;;5032162;28;20291;-73
2021/06/05 05:38:26;;;;;;;2.43;1.00;;;21.10;66.20;;;;;;5031047;28;20678;-71
2021/06/05 05:40:53;;;;;;;1.50;0.80;;;21.00;66.70;;;;;;5032260;28;20643;-71
2021/06/05 05:43:21;;;;;;;1.60;1.00;;;20.80;66.90;;;;;;5032316;28;20243;-72
2021/06/05 05:45:49;;;;;;;1.93;1.00;;;21.10;66.80;;;;;;5032197;28;20538;-76
2021/06/05 05:48:16;;;;;;;4.33;1.17;;;21.20;66.60;;;;;;5030697;28;20659;-71
2021/06/05 05:50:46;;;;;;;3.27;0.90;;;21.00;68.00;;;;;;5032152;28;20180;-71
2021/06/05 05:53:13;;;;;;;1.80;1.27;;;21.00;67.20;;;;;;5032313;28;20264;-69
2021/06/05 05:55:41;;;;;;;2.33;0.97;;;21.10;67.70;;;;;;5028069;28;20647;-74
2021/06/05 05:58:13;;;;;;;2.53;1.20;;;21.00;67.50;;;;;;5033780;28;20180;-68
2021/06/05 06:00:49;;;;;;;3.27;1.10;;;20.70;68.40;;;;;;5036049;28;20184;-73
2021/06/05 06:03:18;;;;;;;4.30;1.33;;;21.00;67.60;;;;;;5034832;28;20183;-74
2021/06/05 06:05:45;;;;;;;7.37;3.50;;;21.00;68.30;;;;;;5035784;28;20172;-68
2021/06/05 06:08:15;;;;;;;1.90;0.97;;;20.10;69.80;;;;;;5035680;28;20624;-75
2021/06/05 06:10:45;;;;;;;5.90;2.30;;;19.70;69.90;;;;;;5035924;28;20161;-71
2021/06/05 06:13:13;;;;;;;4.50;1.60;;;18.80;73.10;;;;;;5035410;28;20279;-72
2021/06/05 06:15:41;;;;;;;2.47;1.47;;;18.30;73.50;;;;;;5035169;28;20191;-72
2021/06/05 06:18:12;;;;;;;2.97;1.10;;;17.90;74.90;;;;;;5032482;28;20291;-75
2021/06/05 06:20:43;;;;;;;1.57;0.93;;;17.90;75.70;;;;;;5035384;28;20177;-73
2021/06/05 06:23:13;;;;;;;2.57;1.50;;;18.00;75.70;;;;;;5035380;28;20695;-70
2021/06/05 06:25:41;;;;;;;2.77;1.40;;;17.70;76.30;;;;;;5034447;28;20221;-71
2021/06/05 06:28:13;;;;;;;2.67;1.30;;;17.50;77.20;;;;;;5035697;28;20212;-73
2021/06/05 06:30:43;;;;;;;2.60;1.40;;;17.00;79.00;;;;;;5015787;28;20541;-70
2021/06/05 06:33:12;;;;;;;2.97;1.60;;;16.70;80.10;;;;;;5029457;28;20268;-73
2021/06/05 06:35:41;;;;;;;4.43;1.40;;;16.50;80.70;;;;;;5035354;28;20181;-72
2021/06/05 06:38:14;;;;;;;4.30;1.63;;;16.40;82.90;;;;;;5035295;28;20240;-74
2021/06/05 06:40:42;;;;;;;5.43;1.53;;;16.30;83.90;;;;;;5035155;28;20653;-68
2021/06/05 06:43:12;;;;;;;1.93;1.37;;;16.20;84.80;;;;;;5035325;28;20254;-75
2021/06/05 06:45:40;;;;;;;6.07;3.40;;;16.20;86.00;;;;;;5034928;28;20263;-73
2021/06/05 06:48:07;;;;;;;5.77;2.50;;;16.10;86.20;;;;;;5032360;28;20254;-69
2021/06/05 06:50:35;;;;;;;7.80;2.17;;;15.90;87.20;;;;;;5034622;28;20188;-71
2021/06/05 06:53:02;;;;;;;3.63;1.87;;;15.90;89.20;;;;;;5034982;28;20180;-69
2021/06/05 06:55:31;;;;;;;3.43;2.83;;;15.90;90.00;;;;;;5034916;28;20187;-73
2021/06/05 06:58:00;;;;;;;16.80;10.03;;;15.70;90.40;;;;;;5033557;28;20220;-71
2021/06/05 07:00:38;;;;;;;7.17;3.07;;;15.60;91.40;;;;;;5031783;28;20181;-74
2021/06/05 07:03:06;;;;;;;4.70;2.27;;;15.60;91.60;;;;;;5034870;28;20183;-72
2021/06/05 07:05:35;;;;;;;6.13;2.20;;;15.60;92.20;;;;;;5034980;28;20226;-72
2021/06/05 07:08:31;;;;;;;4.30;2.27;;;15.50;92.40;;;;;;5034053;28;20267;-72
2021/06/05 07:11:02;;;;;;;2.70;1.70;;;15.40;92.80;;;;;;5032153;28;20235;-68
2021/06/05 07:13:29;;;;;;;4.53;1.70;;;15.30;93.20;;;;;;5033288;28;20197;-68
2021/06/05 07:15:58;;;;;;;2.47;1.80;;;15.20;93.80;;;;;;5033375;28;20664;-69
2021/06/05 07:18:27;;;;;;;12.03;2.33;;;15.10;94.20;;;;;;5033249;28;20576;-71
2021/06/05 07:20:57;;;;;;;2.93;1.80;;;15.00;94.90;;;;;;5033677;28;20216;-66
2021/06/05 07:23:29;;;;;;;4.63;1.90;;;15.00;95.80;;;;;;5033234;28;20225;-67
2021/06/05 07:25:59;;;;;;;5.13;2.73;;;14.90;96.50;;;;;;5034137;28;20650;-68
2021/06/05 07:28:35;;;;;;;6.67;2.00;;;14.90;96.70;;;;;;5033957;28;20571;-67
2021/06/05 07:31:05;;;;;;;8.67;2.30;;;14.80;97.20;;;;;;5032910;28;20235;-68
2021/06/05 07:33:33;;;;;;;5.20;2.20;;;14.70;97.60;;;;;;5033323;28;20272;-71
2021/06/05 07:36:01;;;;;;;3.73;2.10;;;14.60;98.30;;;;;;5030945;28;20303;-69
2021/06/05 07:38:29;;;;;;;4.37;2.03;;;14.50;98.70;;;;;;5031749;28;20583;-68
2021/06/05 07:40:58;;;;;;;11.67;2.33;;;14.50;99.40;;;;;;5033602;28;20180;-71
2021/06/05 07:43:28;;;;;;;3.87;2.23;;;14.40;99.90;;;;;;5023312;28;20187;-69
2021/06/05 07:45:56;;;;;;;7.67;2.63;;;14.30;99.90;;;;;;5033718;28;20180;-72
2021/06/05 07:48:26;;;;;;;9.97;2.90;;;14.20;99.90;;;;;;5033363;28;20179;-73
2021/06/05 07:50:54;;;;;;;5.00;3.50;;;14.20;99.90;;;;;;5032933;28;20741;-70
2021/06/05 07:53:21;;;;;;;6.83;4.00;;;14.10;99.90;;;;;;5029544;28;20188;-72
2021/06/05 07:55:49;;;;;;;11.83;6.27;;;14.10;99.90;;;;;;5033534;28;20215;-72
2021/06/05 07:58:17;;;;;;;17.20;9.60;;;14.00;99.90;;;;;;5033085;28;20184;-69
2021/06/05 08:00:44;;;;;;;17.17;9.57;;;13.90;99.90;;;;;;5033146;28;20206;-68
2021/06/05 08:03:12;;;;;;;12.80;6.67;;;13.90;99.90;;;;;;5033307;28;20196;-67
2021/06/05 08:05:41;;;;;;;14.47;6.57;;;13.80;99.90;;;;;;5033280;28;20204;-69
2021/06/05 08:08:11;;;;;;;11.53;6.00;;;13.80;99.90;;;;;;5032710;28;20563;-67
2021/06/05 08:10:40;;;;;;;9.10;5.80;;;13.80;99.90;;;;;;5032850;28;20181;-69
2021/06/05 08:13:09;;;;;;;8.97;5.83;;;13.70;99.90;;;;;;5031932;28;20187;-67
2021/06/05 08:15:41;;;;;;;12.17;6.03;;;13.80;99.90;;;;;;5030733;28;20874;-72
2021/06/05 08:18:09;;;;;;;9.47;5.90;;;13.70;99.90;;;;;;5028340;28;20188;-67
2021/06/05 08:20:42;;;;;;;9.83;5.93;;;13.60;99.90;;;;;;5030328;28;20235;-70
2021/06/05 08:23:10;;;;;;;10.07;6.23;;;13.60;99.90;;;;;;5032253;28;20176;-67
2021/06/05 08:25:38;;;;;;;13.37;6.37;;;13.50;99.90;;;;;;5031515;28;20192;-67
2021/06/05 08:28:08;;;;;;;16.00;6.23;;;13.40;99.90;;;;;;5032533;28;20165;-68
2021/06/05 08:30:41;;;;;;;10.33;5.50;;;13.40;99.90;;;;;;5031348;28;20687;-67
2021/06/05 08:33:09;;;;;;;9.83;5.67;;;13.30;99.90;;;;;;5032284;28;20205;-70
2021/06/05 08:35:38;;;;;;;14.87;6.17;;;13.30;99.90;;;;;;5032978;28;20188;-73
2021/06/05 08:38:07;;;;;;;10.87;5.90;;;13.30;99.90;;;;;;5032369;28;20584;-68
2021/06/05 08:40:44;;;;;;;8.47;5.90;;;13.20;99.90;;;;;;5032182;28;20204;-67
2021/06/05 08:43:15;;;;;;;11.03;5.87;;;13.20;99.90;;;;;;5032655;28;20581;-68
2021/06/05 08:45:42;;;;;;;10.23;5.80;;;13.30;99.90;;;;;;5021547;28;20192;-69
2021/06/05 08:48:25;;;;;;;8.07;5.63;;;13.30;99.90;;;;;;5032907;28;20275;-67
2021/06/05 08:51:18;;;;;;;14.33;5.67;;;13.30;99.90;;;;;;5026132;28;20180;-67
2021/06/05 08:53:45;;;;;;;10.33;5.37;;;13.20;99.90;;;;;;5022755;28;20238;-71
2021/06/05 08:56:26;;;;;;;13.37;6.50;;;13.20;99.90;;;;;;5031981;28;20240;-67
2021/06/05 08:58:59;;;;;;;11.93;6.07;;;13.20;99.90;;;;;;5032563;28;20186;-68
2021/06/05 09:01:38;;;;;;;13.17;7.37;;;13.20;99.90;;;;;;5031584;28;20537;-67
2021/06/05 09:04:15;;;;;;;12.43;6.30;;;13.20;99.90;;;;;;5032673;28;20267;-70
2021/06/05 09:06:48;;;;;;;11.53;6.67;;;13.20;99.90;;;;;;5032069;28;20702;-73
2021/06/05 09:09:21;;;;;;;13.27;7.00;;;13.30;99.90;;;;;;5029275;28;20606;-69
2021/06/05 09:11:49;;;;;;;13.33;7.37;;;13.30;99.90;;;;;;5032025;28;20181;-71
2021/06/05 09:14:16;;;;;;;9.07;6.43;;;13.20;99.90;;;;;;5027906;28;20231;-73
2021/06/05 09:16:52;;;;;;;14.83;7.13;;;13.20;99.90;;;;;;5030007;28;20221;-66
2021/06/05 09:19:29;;;;;;;10.77;7.00;;;13.10;99.90;;;;;;5032090;28;20184;-74
2021/06/05 09:22:08;;;;;;;9.07;6.40;;;13.00;99.90;;;;;;5031876;28;20263;-69
2021/06/05 09:24:45;;;;;;;12.43;7.53;;;13.10;99.90;;;;;;5031022;28;21040;-69
2021/06/05 09:27:18;;;;;;;10.13;6.93;;;13.10;99.90;;;;;;5032632;28;20179;-71
2021/06/05 09:29:51;;;;;;;11.60;7.67;;;13.00;99.90;;;;;;5031558;28;20180;-72
2021/06/05 09:32:27;;;;;;;12.70;7.93;;;13.00;99.90;;;;;;5032256;28;20172;-70
2021/06/05 09:35:05;;;;;;;15.60;7.77;;;13.00;99.90;;;;;;5036760;28;20270;-77
2021/06/05 09:37:42;;;;;;;14.13;7.57;;;12.90;99.90;;;;;;5033623;28;20219;-74
2021/06/05 09:40:26;;;;;;;12.47;7.37;;;12.80;99.90;;;;;;5033492;28;20338;-76
2021/06/05 09:42:58;;;;;;;11.07;6.83;;;12.70;99.90;;;;;;5035184;28;20188;-73
2021/06/05 09:45:33;;;;;;;12.40;7.77;;;12.60;99.90;;;;;;5024207;28;20183;-74
2021/06/05 09:48:36;;;;;;;17.27;8.23;;;12.60;99.90;;;;;;5035705;28;20180;-75
2021/06/05 09:51:23;;;;;;;13.30;7.47;;;12.60;99.90;;;;;;5027148;28;20207;-73
2021/06/05 09:54:14;;;;;;;22.80;12.90;;;12.50;99.90;;;;;;5033325;28;20659;-75
2021/06/05 09:56:49;;;;;;;19.43;13.23;;;12.40;99.90;;;;;;5035475;28;20413;-75
2021/06/05 09:59:27;;;;;;;19.87;12.97;;;12.30;99.90;;;;;;5035508;28;20183;-69
2021/06/05 10:02:14;;;;;;;16.80;10.60;;;12.30;99.90;;;;;;5035490;28;20273;-68
2021/06/05 10:04:42;;;;;;;14.83;8.17;;;12.30;99.90;;;;;;5035231;28;20223;-70
2021/06/05 10:07:28;;;;;;;18.13;10.57;;;12.30;99.90;;;;;;5035397;28;20533;-68
2021/06/05 10:10:03;;;;;;;14.13;8.20;;;12.20;99.90;;;;;;5035742;28;20177;-68
2021/06/05 10:12:37;;;;;;;9.90;6.13;;;12.10;99.90;;;;;;5034604;28;20308;-68
2021/06/05 10:15:12;;;;;;;11.17;7.10;;;12.20;99.90;;;;;;5035562;28;20165;-71
2021/06/05 10:17:55;;;;;;;10.87;6.90;;;12.20;99.90;;;;;;5034655;28;20274;-69
2021/06/05 10:20:27;;;;;;;7.60;5.57;;;12.20;99.90;;;;;;5032575;28;20211;-74
2021/06/05 10:22:58;;;;;;;9.43;5.70;;;12.10;99.90;;;;;;5034760;28;20238;-69
2021/06/05 10:25:45;;;;;;;8.93;5.40;;;12.20;99.90;;;;;;5034603;28;20204;-68
2021/06/05 10:28:20;;;;;;;9.00;5.80;;;12.20;99.90;;;;;;5029686;28;20216;-68
2021/06/05 10:31:11;;;;;;;12.70;6.17;;;12.20;99.90;;;;;;5034024;28;20183;-72
2021/06/05 10:33:49;;;;;;;9.53;5.80;;;12.20;99.90;;;;;;5034668;28;20230;-69
2021/06/05 10:36:22;;;;;;;11.23;5.83;;;12.20;99.90;;;;;;5035196;28;20223;-73
2021/06/05 10:39:12;;;;;;;9.50;5.67;;;12.10;99.90;;;;;;5034455;28;20274;-68
2021/06/05 10:42:05;;;;;;;12.40;5.93;;;12.00;99.90;;;;;;5033894;28;20180;-70
2021/06/05 10:44:32;;;;;;;8.00;5.60;;;11.90;99.90;;;;;;5027379;28;20207;-72
2021/06/05 10:47:01;;;;;;;9.27;5.13;;;11.80;99.90;;;;;;5035299;28;20533;-68
2021/06/05 10:49:38;;;;;;;8.70;5.87;;;11.80;99.90;;;;;;5034607;28;20215;-70
2021/06/05 10:52:25;;;;;;;8.57;5.97;;;11.70;99.90;;;;;;5034522;28;20183;-69
2021/06/05 10:55:10;;;;;;;7.77;5.57;;;11.60;99.90;;;;;;5034952;28;20184;-69
2021/06/05 10:57:45;;;;;;;9.47;6.00;;;11.60;99.90;;;;;;5034797;28;20245;-70
2021/06/05 11:00:22;;;;;;;8.77;6.03;;;11.60;99.90;;;;;;5034703;28;20180;-68
2021/06/05 11:02:55;;;;;;;16.00;6.27;;;11.60;99.90;;;;;;5034236;28;20630;-68
2021/06/05 11:05:31;;;;;;;10.30;5.93;;;11.60;99.90;;;;;;5034301;28;20195;-67
2021/06/05 11:08:18;;;;;;;9.77;5.77;;;11.60;99.90;;;;;;5034093;28;20184;-67
2021/06/05 11:10:50;;;;;;;9.97;5.97;;;11.60;99.90;;;;;;5026930;28;20198;-67
2021/06/05 11:13:36;;;;;;;10.20;5.87;;;11.60;99.90;;;;;;5034459;28;20326;-69
2021/06/05 11:16:22;;;;;;;9.37;5.87;;;11.50;99.90;;;;;;5034149;28;20185;-74
2021/06/05 11:18:55;;;;;;;9.17;5.50;;;11.50;99.90;;;;;;5033998;28;20272;-69
2021/06/05 11:21:26;;;;;;;10.07;6.27;;;11.50;99.90;;;;;;5033978;28;20524;-69
2021/06/05 11:23:57;;;;;;;7.57;6.10;;;11.50;99.90;;;;;;5033092;28;20187;-72
2021/06/05 11:26:37;;;;;;;9.73;6.10;;;11.40;99.90;;;;;;5033765;28;20678;-68
2021/06/05 11:29:19;;;;;;;8.43;6.27;;;11.40;99.90;;;;;;5038279;28;20188;-68
2021/06/05 11:32:30;;;;;;;11.57;6.33;;;11.30;99.90;;;;;;5032802;28;20665;-67
2021/06/05 11:35:00;;;;;;;13.50;6.03;;;11.30;99.90;;;;;;5026650;28;20181;-70
2021/06/05 11:37:34;;;;;;;12.33;6.93;;;11.20;99.90;;;;;;5032231;28;20717;-68
2021/06/05 11:40:08;;;;;;;9.33;7.07;;;11.00;99.90;;;;;;5032864;28;20215;-68
2021/06/05 11:42:56;;;;;;;14.00;7.43;;;11.10;99.90;;;;;;5033840;28;20198;-70
2021/06/05 11:45:26;;;;;;;12.00;7.87;;;11.00;99.90;;;;;;5026410;28;20177;-71
2021/06/05 11:47:53;;;;;;;15.00;8.07;;;11.00;99.90;;;;;;5027191;28;20184;-72
2021/06/05 11:50:34;;;;;;;15.83;9.70;;;10.90;99.90;;;;;;5033814;28;20179;-68
2021/06/05 11:53:28;;;;;;;20.03;12.27;;;10.90;99.90;;;;;;5024782;28;20207;-72
2021/06/05 11:56:04;;;;;;;18.97;11.40;;;10.90;99.90;;;;;;5031554;28;20181;-72
2021/06/05 11:58:33;;;;;;;19.13;12.43;;;10.80;99.90;;;;;;5030713;28;20278;-68
2021/06/05 12:01:09;;;;;;;23.67;10.57;;;10.80;99.90;;;;;;5033123;28;20677;-67
2021/06/05 12:03:56;;;;;;;17.90;11.17;;;10.80;99.90;;;;;;5033373;28;20192;-69
2021/06/05 12:06:27;;;;;;;24.30;10.80;;;10.80;99.90;;;;;;5032769;28;20168;-68
2021/06/05 12:09:21;;;;;;;16.83;11.00;;;10.90;99.90;;;;;;5032476;28;20669;-71
2021/06/05 12:11:59;;;;;;;21.07;12.23;;;10.80;99.90;;;;;;5033388;28;20182;-67
2021/06/05 12:17:19;;;;;;;22.43;12.37;;;10.70;99.90;;;;;;5031808;28;20237;-69
2021/06/05 12:19:47;;;;;;;21.47;11.73;;;10.60;99.90;;;;;;5031042;28;20676;-71
2021/06/05 12:22:42;;;;;;;17.83;10.80;;;10.70;99.90;;;;;;5032835;28;20516;-68
2021/06/05 12:25:28;;;;;;;19.57;12.00;;;10.70;99.90;;;;;;5022164;28;20751;-71
2021/06/05 12:28:10;;;;;;;22.73;12.13;;;10.70;99.90;;;;;;5029867;28;20270;-73
2021/06/05 12:30:42;;;;;;;17.37;11.67;;;10.80;99.90;;;;;;5040355;28;20545;-71
2021/06/05 12:33:13;;;;;;;17.27;11.43;;;10.80;99.90;;;;;;5033022;28;20578;-72
2021/06/05 12:35:44;;;;;;;22.43;12.83;;;10.80;99.90;;;;;;5033030;28;20179;-72
2021/06/05 12:38:28;;;;;;;18.27;11.47;;;10.70;99.90;;;;;;5032364;28;20214;-75
2021/06/05 12:41:01;;;;;;;18.43;11.63;;;10.70;99.90;;;;;;5033527;28;20215;-74
2021/06/05 12:43:33;;;;;;;18.30;11.43;;;10.70;99.90;;;;;;5029265;28;20191;-73
2021/06/05 12:46:04;;;;;;;19.13;11.07;;;10.70;99.90;;;;;;5032854;28;20532;-72
2021/06/05 12:48:31;;;;;;;19.73;10.90;;;10.70;99.90;;;;;;5029471;28;20180;-74
2021/06/05 12:51:00;;;;;;;17.50;11.63;;;10.60;99.90;;;;;;5032480;28;20184;-70
2021/06/05 12:53:32;;;;;;;21.20;12.00;;;10.60;99.90;;;;;;5026385;28;20193;-74
2021/06/05 12:56:06;;;;;;;17.77;11.87;;;10.50;99.90;;;;;;5032015;28;20184;-69
2021/06/05 12:58:36;;;;;;;20.77;12.10;;;10.40;99.90;;;;;;5032026;28;20191;-70
2021/06/05 13:01:24;;;;;;;20.80;11.67;;;10.40;99.90;;;;;;5032302;28;20941;-69
2021/06/05 13:03:53;;;;;;;20.17;12.47;;;10.40;99.90;;;;;;5032875;28;20180;-69
2021/06/05 13:06:34;;;;;;;22.23;12.87;;;10.40;99.90;;;;;;5032415;28;20266;-69
2021/06/05 13:09:25;;;;;;;22.97;12.57;;;10.50;99.90;;;;;;5031116;28;20204;-68
2021/06/05 13:11:56;;;;;;;24.43;12.10;;;10.50;99.90;;;;;;5032674;28;20321;-68
2021/06/05 13:14:38;;;;;;;19.50;12.23;;;10.50;99.90;;;;;;5031880;28;20186;-70